createdAt,value
2023-05-05T00:01:02.172Z,14.16
2023-05-05T00:03:30.085Z,14.16
2023-05-05T00:05:58.223Z,14.16
2023-05-05T00:08:26.018Z,14.15
2023-05-05T00:10:53.934Z,14.13
2023-05-05T00:13:21.874Z,14.10
2023-05-05T00:15:50.700Z,14.07
2023-05-05T00:18:18.974Z,14.06
2023-05-05T00:20:49.715Z,14.07
2023-05-05T00:23:17.922Z,14.08
2023-05-05T00:25:45.722Z,14.09
2023-05-05T00:28:16.547Z,14.11
2023-05-05T00:30:45.072Z,14.13
2023-05-05T00:33:13.120Z,14.15
2023-05-05T00:35:40.820Z,14.16
2023-05-05T00:38:08.559Z,14.17
2023-05-05T00:40:37.097Z,14.16
2023-05-05T00:43:05.748Z,14.14
2023-05-05T00:45:33.491Z,14.13
2023-05-05T00:48:01.757Z,14.12
2023-05-05T00:50:30.582Z,14.13
2023-05-05T00:53:02.261Z,14.13
2023-05-05T00:55:30.581Z,14.13
2023-05-05T00:57:59.631Z,14.14
2023-05-05T01:00:28.130Z,14.14
2023-05-05T01:02:56.415Z,14.15
2023-05-05T01:05:27.855Z,14.13
2023-05-05T01:08:06.183Z,14.13
2023-05-05T01:10:54.163Z,14.14
2023-05-05T01:13:37.469Z,14.14
2023-05-05T01:16:15.464Z,14.12
2023-05-05T01:18:52.306Z,14.12
2023-05-05T01:21:33.408Z,14.14
2023-05-05T01:24:01.174Z,14.13
2023-05-05T01:26:35.086Z,14.12
2023-05-05T01:29:02.875Z,14.12
2023-05-05T01:31:39.612Z,14.13
2023-05-05T01:34:08.548Z,14.13
2023-05-05T01:36:38.044Z,14.13
2023-05-05T01:39:08.352Z,14.16
2023-05-05T01:42:02.633Z,14.20
2023-05-05T01:44:31.288Z,14.24
2023-05-05T01:46:59.727Z,14.26
2023-05-05T01:49:28.183Z,14.27
2023-05-05T01:51:56.558Z,14.26
2023-05-05T01:54:25.069Z,14.21
2023-05-05T01:56:54.452Z,14.17
2023-05-05T01:59:23.490Z,14.15
2023-05-05T02:01:52.073Z,14.15
2023-05-05T02:04:22.890Z,14.16
2023-05-05T02:06:53.098Z,14.17
2023-05-05T02:09:25.009Z,14.19
2023-05-05T02:11:54.502Z,14.19
2023-05-05T02:14:23.158Z,14.18
2023-05-05T02:16:51.625Z,14.18
2023-05-05T02:19:21.387Z,14.18
2023-05-05T02:21:49.821Z,14.18
2023-05-05T02:24:17.501Z,14.19
2023-05-05T02:26:46.193Z,14.20
2023-05-05T02:29:16.529Z,14.20
2023-05-05T02:31:48.029Z,14.24
2023-05-05T02:34:21.400Z,14.28
2023-05-05T02:36:51.624Z,14.30
2023-05-05T02:39:35.956Z,14.34
2023-05-05T02:42:08.237Z,14.39
2023-05-05T02:44:37.008Z,14.45
2023-05-05T02:47:05.042Z,14.49
2023-05-05T02:49:33.159Z,14.52
2023-05-05T02:52:01.233Z,14.55
2023-05-05T02:54:33.287Z,14.57
2023-05-05T02:57:02.240Z,14.60
2023-05-05T02:59:36.577Z,14.63
2023-05-05T03:02:13.933Z,14.67
2023-05-05T03:04:56.476Z,14.72
2023-05-05T03:07:30.684Z,14.68
2023-05-05T03:10:05.123Z,14.63
2023-05-05T03:12:37.461Z,14.59
2023-05-05T03:15:22.321Z,14.53
2023-05-05T03:17:53.115Z,14.43
2023-05-05T03:20:21.798Z,14.36
2023-05-05T03:22:50.790Z,14.35
2023-05-05T03:25:18.640Z,14.37
2023-05-05T03:27:46.632Z,14.36
2023-05-05T03:30:15.981Z,14.32
2023-05-05T03:32:48.740Z,14.28
2023-05-05T03:35:16.895Z,14.26
2023-05-05T03:37:45.050Z,14.23
2023-05-05T03:40:13.827Z,14.20
2023-05-05T03:42:42.030Z,14.20
2023-05-05T03:45:10.265Z,14.18
2023-05-05T03:47:38.377Z,14.16
2023-05-05T03:50:07.558Z,14.18
2023-05-05T03:52:36.918Z,14.24
2023-05-05T03:55:04.873Z,14.31
2023-05-05T03:57:34.298Z,14.35
2023-05-05T04:00:02.350Z,14.39
2023-05-05T04:02:30.954Z,14.43
2023-05-05T04:04:59.015Z,14.48
2023-05-05T04:07:27.192Z,14.53
2023-05-05T04:09:56.124Z,14.60
2023-05-05T04:12:23.869Z,14.56
2023-05-05T04:14:51.808Z,14.52
2023-05-05T04:17:20.032Z,14.50
2023-05-05T04:19:47.790Z,14.49
2023-05-05T04:22:16.107Z,14.54
2023-05-05T04:24:44.085Z,14.60
2023-05-05T04:27:12.442Z,14.64
2023-05-05T04:29:40.910Z,14.66
2023-05-05T04:32:08.717Z,14.64
2023-05-05T04:34:36.988Z,14.65
2023-05-05T04:37:05.120Z,14.82
2023-05-05T04:39:33.453Z,14.91
2023-05-05T04:42:02.212Z,14.94
2023-05-05T04:44:30.014Z,14.98
2023-05-05T04:46:58.112Z,15.03
2023-05-05T04:49:26.251Z,15.07
2023-05-05T04:51:54.238Z,15.12
2023-05-05T04:54:22.746Z,15.15
2023-05-05T04:56:50.803Z,15.18
2023-05-05T04:59:18.635Z,15.24
2023-05-05T05:01:47.239Z,15.33
2023-05-05T05:04:18.378Z,15.42
2023-05-05T05:06:46.489Z,15.50
2023-05-05T05:09:14.518Z,15.59
2023-05-05T05:11:42.239Z,15.66
2023-05-05T05:14:10.191Z,15.74
2023-05-05T05:16:38.248Z,15.82
2023-05-05T05:19:06.973Z,15.85
2023-05-05T05:21:34.786Z,15.86
2023-05-05T05:24:02.629Z,15.88
2023-05-05T05:26:30.388Z,15.91
2023-05-05T05:28:58.292Z,15.94
2023-05-05T05:31:26.151Z,15.96
2023-05-05T05:33:54.027Z,15.98
2023-05-05T05:36:21.931Z,16.02
2023-05-05T05:38:49.909Z,16.05
2023-05-05T05:41:18.103Z,16.08
2023-05-05T05:43:46.008Z,16.13
2023-05-05T05:46:13.860Z,16.13
2023-05-05T05:48:42.292Z,16.07
2023-05-05T05:51:10.358Z,16.00
2023-05-05T05:53:38.626Z,15.92
2023-05-05T05:56:06.754Z,15.88
2023-05-05T05:58:34.886Z,15.89
2023-05-05T06:01:04.964Z,15.90
2023-05-05T06:03:33.025Z,15.97
2023-05-05T06:06:00.977Z,15.96
2023-05-05T06:08:28.901Z,15.96
2023-05-05T06:10:57.931Z,16.00
2023-05-05T06:13:26.060Z,16.09
2023-05-05T06:15:53.772Z,16.20
2023-05-05T06:18:21.729Z,16.28
2023-05-05T06:20:50.753Z,16.36
2023-05-05T06:23:18.687Z,16.46
2023-05-05T06:25:51.021Z,16.58
2023-05-05T06:28:18.923Z,16.69
2023-05-05T06:30:46.677Z,16.76
2023-05-05T06:33:14.634Z,16.79
2023-05-05T06:35:42.779Z,16.81
2023-05-05T06:38:10.610Z,16.81
2023-05-05T06:40:38.343Z,16.84
2023-05-05T06:43:06.135Z,16.90
2023-05-05T06:45:37.202Z,16.96
2023-05-05T06:48:04.929Z,17.04
2023-05-05T06:50:33.044Z,17.18
2023-05-05T06:53:01.300Z,17.39
2023-05-05T06:55:29.049Z,17.61
2023-05-05T06:57:56.793Z,17.69
2023-05-05T07:00:24.631Z,17.78
2023-05-05T07:02:52.443Z,17.81
2023-05-05T07:05:20.446Z,17.84
2023-05-05T07:07:52.854Z,17.85
2023-05-05T07:10:21.437Z,17.84
2023-05-05T07:12:49.421Z,17.85
2023-05-05T07:15:27.655Z,17.90
2023-05-05T07:17:57.787Z,18.08
2023-05-05T07:20:25.986Z,18.14
2023-05-05T07:22:53.832Z,18.19
2023-05-05T07:25:21.832Z,18.40
2023-05-05T07:27:49.848Z,18.69
2023-05-05T07:30:19.098Z,18.98
2023-05-05T07:32:47.666Z,19.22
2023-05-05T07:35:15.550Z,19.47
2023-05-05T07:37:44.320Z,19.70
2023-05-05T07:40:12.380Z,19.90
2023-05-05T07:42:40.249Z,19.97
2023-05-05T07:45:08.421Z,20.00
2023-05-05T07:47:36.301Z,20.08
2023-05-05T07:50:05.053Z,20.21
2023-05-05T07:52:45.313Z,20.22
2023-05-05T07:55:16.098Z,20.30
2023-05-05T07:57:43.760Z,20.46
2023-05-05T08:00:13.238Z,20.51
2023-05-05T08:02:41.730Z,20.49
2023-05-05T08:05:09.906Z,20.58
2023-05-05T08:07:41.298Z,20.67
2023-05-05T08:10:11.055Z,20.59
2023-05-05T08:12:39.266Z,20.63
2023-05-05T08:15:07.820Z,20.75
2023-05-05T08:17:46.084Z,20.89
2023-05-05T08:20:14.766Z,20.91
2023-05-05T08:22:42.997Z,20.83
2023-05-05T08:25:11.660Z,20.78
2023-05-05T08:27:40.095Z,20.83
2023-05-05T08:30:08.525Z,20.90
2023-05-05T08:32:36.694Z,20.92
2023-05-05T08:35:05.302Z,20.92
2023-05-05T08:37:33.177Z,20.90
2023-05-05T08:40:01.165Z,20.81
2023-05-05T08:42:37.280Z,20.81
2023-05-05T08:45:06.899Z,21.05
2023-05-05T08:47:35.980Z,21.41
2023-05-05T08:50:05.755Z,21.64
2023-05-05T08:52:39.576Z,21.82
2023-05-05T08:55:13.337Z,21.99
2023-05-05T08:57:46.377Z,22.14
2023-05-05T09:00:14.624Z,22.39
2023-05-05T09:02:43.255Z,22.62
2023-05-05T09:05:11.497Z,22.80
2023-05-05T09:07:41.377Z,23.04
2023-05-05T09:10:10.355Z,23.27
2023-05-05T09:12:41.652Z,23.35
2023-05-05T09:15:10.516Z,23.31
2023-05-05T09:17:39.250Z,23.34
2023-05-05T09:20:08.315Z,23.47
2023-05-05T09:22:36.955Z,23.52
2023-05-05T09:25:08.997Z,23.61
2023-05-05T09:27:37.709Z,23.57
2023-05-05T09:30:06.073Z,23.54
2023-05-05T09:32:47.448Z,23.55
2023-05-05T09:35:16.111Z,23.55
2023-05-05T09:37:43.947Z,23.53
2023-05-05T09:40:13.447Z,23.56
2023-05-05T09:42:41.166Z,23.35
2023-05-05T09:45:18.486Z,23.25
2023-05-05T09:47:47.235Z,23.35
2023-05-05T09:50:17.066Z,23.45
2023-05-05T09:52:54.875Z,23.47
2023-05-05T09:55:23.268Z,23.61
2023-05-05T09:57:51.271Z,23.61
2023-05-05T10:00:19.433Z,23.54
2023-05-05T10:02:47.212Z,23.65
2023-05-05T10:05:16.515Z,23.97
2023-05-05T10:07:45.233Z,24.12
2023-05-05T10:10:16.577Z,24.15
2023-05-05T10:12:46.710Z,24.22
2023-05-05T10:15:15.641Z,24.46
2023-05-05T10:18:05.114Z,24.76
2023-05-05T10:20:35.569Z,24.86
2023-05-05T10:23:05.975Z,24.86
2023-05-05T10:25:39.156Z,24.94
2023-05-05T10:28:09.871Z,24.95
2023-05-05T10:30:42.980Z,24.98
2023-05-05T10:33:30.293Z,25.09
2023-05-05T10:36:02.312Z,25.13
2023-05-05T10:38:33.520Z,25.10
2023-05-05T10:41:02.109Z,25.08
2023-05-05T10:43:30.901Z,24.99
2023-05-05T10:45:59.329Z,24.79
2023-05-05T10:48:50.718Z,24.55
2023-05-05T10:51:39.266Z,24.51
2023-05-05T10:54:27.916Z,24.50
2023-05-05T10:56:56.805Z,24.39
2023-05-05T10:59:39.686Z,24.07
2023-05-05T11:02:21.382Z,23.94
2023-05-05T11:05:08.336Z,24.04
2023-05-05T11:07:37.216Z,24.25
2023-05-05T11:10:06.043Z,24.43
2023-05-05T11:12:53.943Z,24.59
2023-05-05T11:15:27.898Z,24.70
2023-05-05T11:17:56.533Z,24.54
2023-05-05T11:20:40.046Z,24.27
2023-05-05T11:23:08.122Z,24.13
2023-05-05T11:25:40.566Z,24.40
2023-05-05T11:28:12.543Z,24.69
2023-05-05T11:30:59.181Z,24.99
2023-05-05T11:33:30.575Z,25.25
2023-05-05T11:36:03.441Z,25.42
2023-05-05T11:38:38.836Z,25.60
2023-05-05T11:41:13.903Z,25.80
2023-05-05T11:43:42.497Z,25.94
2023-05-05T11:46:11.868Z,26.01
2023-05-05T11:48:49.221Z,25.89
2023-05-05T11:51:18.582Z,25.57
2023-05-05T11:53:47.488Z,25.27
2023-05-05T11:56:25.061Z,25.27
2023-05-05T11:59:06.825Z,25.39
2023-05-05T12:01:35.351Z,25.52
2023-05-05T12:04:03.459Z,25.58
2023-05-05T12:06:34.683Z,25.64
2023-05-05T12:09:02.868Z,25.67
2023-05-05T12:11:30.624Z,25.71
2023-05-05T12:14:11.693Z,25.76
2023-05-05T12:16:39.626Z,25.75
2023-05-05T12:19:08.531Z,25.72
2023-05-05T12:21:36.849Z,25.83
2023-05-05T12:24:04.806Z,26.08
2023-05-05T12:26:32.517Z,26.22
2023-05-05T12:29:01.123Z,26.34
2023-05-05T12:31:35.945Z,26.41
2023-05-05T12:34:04.850Z,26.45
2023-05-05T12:36:33.625Z,26.62
2023-05-05T12:39:01.659Z,26.80
2023-05-05T12:41:29.477Z,27.01
2023-05-05T12:43:58.309Z,27.17
2023-05-05T12:46:26.590Z,27.18
2023-05-05T12:49:05.693Z,27.12
2023-05-05T12:51:34.105Z,27.10
2023-05-05T12:54:05.568Z,27.01
2023-05-05T12:56:35.387Z,26.89
2023-05-05T12:59:07.494Z,26.88
2023-05-05T13:01:36.297Z,26.84
2023-05-05T13:04:04.836Z,26.71
2023-05-05T13:06:32.738Z,26.65
2023-05-05T13:09:00.941Z,26.65
2023-05-05T13:11:28.715Z,26.74
2023-05-05T13:13:56.656Z,26.89
2023-05-05T13:16:24.551Z,27.06
2023-05-05T13:18:53.555Z,27.12
2023-05-05T13:21:21.351Z,27.18
2023-05-05T13:23:49.166Z,27.18
2023-05-05T13:26:17.159Z,27.16
2023-05-05T13:28:44.943Z,27.05
2023-05-05T13:31:12.748Z,26.99
2023-05-05T13:33:40.828Z,27.02
2023-05-05T13:36:08.658Z,26.99
2023-05-05T13:38:36.781Z,26.93
2023-05-05T13:41:04.464Z,26.97
2023-05-05T13:43:32.125Z,27.04
2023-05-05T13:46:12.252Z,27.08
2023-05-05T13:48:47.251Z,27.06
2023-05-05T13:51:16.523Z,26.98
2023-05-05T13:53:45.101Z,26.95
2023-05-05T13:56:13.373Z,26.93
2023-05-05T13:58:42.722Z,26.90
2023-05-05T14:01:11.039Z,26.78
2023-05-05T14:03:39.870Z,26.74
2023-05-05T14:06:09.159Z,26.66
2023-05-05T14:08:37.014Z,26.57
2023-05-05T14:11:04.754Z,26.58
2023-05-05T14:13:32.553Z,26.47
2023-05-05T14:16:00.356Z,26.39
2023-05-05T14:18:28.358Z,26.34
2023-05-05T14:20:56.163Z,26.37
2023-05-05T14:23:23.904Z,26.29
2023-05-05T14:25:51.650Z,26.30
2023-05-05T14:28:19.495Z,26.32
2023-05-05T14:30:47.162Z,26.35
2023-05-05T14:33:14.952Z,26.37
2023-05-05T14:35:42.918Z,26.34
2023-05-05T14:38:10.745Z,26.22
2023-05-05T14:40:38.423Z,26.00
2023-05-05T14:43:06.339Z,25.88
2023-05-05T14:45:34.149Z,25.80
2023-05-05T14:48:02.737Z,25.73
2023-05-05T14:50:30.739Z,25.61
2023-05-05T14:52:58.557Z,25.53
2023-05-05T14:55:26.513Z,25.47
2023-05-05T14:57:54.277Z,25.42
2023-05-05T15:00:22.027Z,25.35
2023-05-05T15:02:49.721Z,25.26
2023-05-05T15:05:17.582Z,25.20
2023-05-05T15:07:45.564Z,25.13
2023-05-05T15:10:13.406Z,25.04
2023-05-05T15:12:42.448Z,24.89
2023-05-05T15:15:10.656Z,24.69
2023-05-05T15:17:38.830Z,24.63
2023-05-05T15:20:07.068Z,24.61
2023-05-05T15:22:36.403Z,24.56
2023-05-05T15:25:04.288Z,24.48
2023-05-05T15:27:32.225Z,24.42
2023-05-05T15:30:00.224Z,24.30
2023-05-05T15:32:28.250Z,24.20
2023-05-05T15:34:56.324Z,24.13
2023-05-05T15:37:24.702Z,24.03
2023-05-05T15:39:52.459Z,23.94
2023-05-05T15:42:20.093Z,23.84
2023-05-05T15:44:47.824Z,23.78
2023-05-05T15:47:15.531Z,23.69
2023-05-05T15:49:43.458Z,23.62
2023-05-05T15:52:11.906Z,23.55
2023-05-05T15:54:39.720Z,23.49
2023-05-05T15:57:07.361Z,23.42
2023-05-05T15:59:35.460Z,23.35
2023-05-05T16:02:03.351Z,23.29
2023-05-05T16:04:31.280Z,23.23
2023-05-05T16:06:59.212Z,23.23
2023-05-05T16:09:27.112Z,23.21
2023-05-05T16:11:55.291Z,23.18
2023-05-05T16:14:23.120Z,23.15
2023-05-05T16:16:50.892Z,23.11
2023-05-05T16:19:18.904Z,23.06
2023-05-05T16:21:46.687Z,23.02
2023-05-05T16:24:17.137Z,22.97
2023-05-05T16:26:45.579Z,22.94
2023-05-05T16:29:13.200Z,22.91
2023-05-05T16:31:41.084Z,22.88
2023-05-05T16:34:09.063Z,22.84
2023-05-05T16:36:36.831Z,22.82
2023-05-05T16:39:04.528Z,22.79
2023-05-05T16:41:32.571Z,22.72
2023-05-05T16:44:00.265Z,22.67
2023-05-05T16:46:28.218Z,22.60
2023-05-05T16:48:56.515Z,22.55
2023-05-05T16:51:24.566Z,22.50
2023-05-05T16:53:52.230Z,22.47
2023-05-05T16:56:19.945Z,22.43
2023-05-05T16:58:47.668Z,22.36
2023-05-05T17:01:15.437Z,22.32
2023-05-05T17:03:43.420Z,22.28
2023-05-05T17:06:13.000Z,22.24
2023-05-05T17:08:40.734Z,22.22
2023-05-05T17:11:10.991Z,22.18
2023-05-05T17:13:40.000Z,22.15
2023-05-05T17:16:07.805Z,22.08
2023-05-05T17:18:37.083Z,21.99
2023-05-05T17:21:05.013Z,21.89
2023-05-05T17:23:32.706Z,21.85
2023-05-05T17:26:00.783Z,21.86
2023-05-05T17:28:28.519Z,21.83
2023-05-05T17:30:59.663Z,21.77
2023-05-05T17:33:27.335Z,21.72
2023-05-05T17:35:55.000Z,21.70
2023-05-05T17:38:23.105Z,21.67
2023-05-05T17:40:50.822Z,21.62
2023-05-05T17:43:18.438Z,21.58
2023-05-05T17:45:46.812Z,21.52
2023-05-05T17:48:14.677Z,21.46
2023-05-05T17:50:43.455Z,21.40
2023-05-05T17:53:11.873Z,21.37
2023-05-05T17:55:39.572Z,21.32
2023-05-05T17:58:07.444Z,21.27
2023-05-05T18:00:35.971Z,21.22
2023-05-05T18:03:04.349Z,21.17
2023-05-05T18:05:32.139Z,21.10
2023-05-05T18:08:00.028Z,21.02
2023-05-05T18:10:27.774Z,20.91
2023-05-05T18:12:55.596Z,20.80
2023-05-05T18:15:23.308Z,20.70
2023-05-05T18:17:51.153Z,20.60
2023-05-05T18:20:19.274Z,20.48
2023-05-05T18:22:47.048Z,20.38
2023-05-05T18:25:15.078Z,20.30
2023-05-05T18:27:43.927Z,20.23
2023-05-05T18:30:11.986Z,20.15
2023-05-05T18:32:39.889Z,20.06
2023-05-05T18:35:08.933Z,19.97
2023-05-05T18:37:36.840Z,19.87
2023-05-05T18:40:04.855Z,19.81
2023-05-05T18:42:32.804Z,19.73
2023-05-05T18:45:00.703Z,19.67
2023-05-05T18:47:28.730Z,19.62
2023-05-05T18:49:56.893Z,19.57
2023-05-05T18:52:25.356Z,19.52
2023-05-05T18:54:53.019Z,19.46
2023-05-05T18:57:20.697Z,19.39
2023-05-05T18:59:48.427Z,19.30
2023-05-05T19:02:16.940Z,19.23
2023-05-05T19:04:44.694Z,19.16
2023-05-05T19:07:18.318Z,19.11
2023-05-05T19:09:49.060Z,19.07
2023-05-05T19:12:18.266Z,18.99
2023-05-05T19:14:46.115Z,18.90
2023-05-05T19:17:13.911Z,18.79
2023-05-05T19:19:41.909Z,18.69
2023-05-05T19:22:10.023Z,18.57
2023-05-05T19:24:37.812Z,18.49
2023-05-05T19:27:05.545Z,18.40
2023-05-05T19:29:33.348Z,18.32
2023-05-05T19:32:01.189Z,18.27
2023-05-05T19:34:29.080Z,18.23
2023-05-05T19:36:56.943Z,18.19
2023-05-05T19:39:24.851Z,18.15
2023-05-05T19:41:53.256Z,18.13
2023-05-05T19:44:22.608Z,18.11
2023-05-05T19:46:50.910Z,18.06
2023-05-05T19:49:18.767Z,17.98
2023-05-05T19:51:49.873Z,17.91
2023-05-05T19:54:18.238Z,17.83
2023-05-05T19:56:46.093Z,17.80
2023-05-05T19:59:13.728Z,17.75
2023-05-05T20:01:41.762Z,17.71
2023-05-05T20:04:09.827Z,17.68
2023-05-05T20:06:37.577Z,17.65
2023-05-05T20:09:05.584Z,17.63
2023-05-05T20:11:33.475Z,17.60
2023-05-05T20:14:01.299Z,17.55
2023-05-05T20:16:29.180Z,17.51
2023-05-05T20:18:57.137Z,17.45
2023-05-05T20:21:24.820Z,17.40
2023-05-05T20:23:54.678Z,17.31
2023-05-05T20:26:22.440Z,17.22
2023-05-05T20:28:50.524Z,17.15
2023-05-05T20:31:18.378Z,17.08
2023-05-05T20:33:46.457Z,17.01
2023-05-05T20:36:14.235Z,16.95
2023-05-05T20:38:43.152Z,16.88
2023-05-05T20:41:11.531Z,16.83
2023-05-05T20:43:39.403Z,16.77
2023-05-05T20:46:10.871Z,16.73
2023-05-05T20:48:42.483Z,16.69
2023-05-05T20:51:11.178Z,16.62
2023-05-05T20:53:38.932Z,16.56
2023-05-05T20:56:08.937Z,16.50
2023-05-05T20:58:37.229Z,16.45
2023-05-05T21:01:05.022Z,16.38
2023-05-05T21:03:32.801Z,16.30
2023-05-05T21:06:01.728Z,16.24
2023-05-05T21:08:29.669Z,16.19
2023-05-05T21:10:57.341Z,16.15
2023-05-05T21:13:25.182Z,16.12
2023-05-05T21:15:53.132Z,16.08
2023-05-05T21:18:21.043Z,16.05
2023-05-05T21:20:48.945Z,16.03
2023-05-05T21:23:16.923Z,15.98
2023-05-05T21:25:44.643Z,15.93
2023-05-05T21:28:12.430Z,15.91
2023-05-05T21:30:40.448Z,15.92
2023-05-05T21:33:08.266Z,15.92
2023-05-05T21:35:36.178Z,15.91
2023-05-05T21:38:03.910Z,15.90
2023-05-05T21:40:31.653Z,15.91
2023-05-05T21:42:59.552Z,15.91
2023-05-05T21:45:27.292Z,15.90
2023-05-05T21:47:55.197Z,15.88
2023-05-05T21:50:22.970Z,15.85
2023-05-05T21:52:50.873Z,15.82
2023-05-05T21:55:18.551Z,15.78
2023-05-05T21:57:46.385Z,15.77
2023-05-05T22:00:16.939Z,15.76
2023-05-05T22:02:45.498Z,15.75
2023-05-05T22:05:13.429Z,15.73
2023-05-05T22:07:41.342Z,15.69
2023-05-05T22:10:09.339Z,15.66
2023-05-05T22:12:37.124Z,15.63
2023-05-05T22:15:05.254Z,15.59
2023-05-05T22:17:33.008Z,15.54
2023-05-05T22:20:00.670Z,15.49
2023-05-05T22:22:28.406Z,15.45
2023-05-05T22:24:56.103Z,15.42
2023-05-05T22:27:23.925Z,15.38
2023-05-05T22:29:51.616Z,15.34
2023-05-05T22:32:20.462Z,15.31
2023-05-05T22:34:48.406Z,15.27
2023-05-05T22:37:16.197Z,15.24
2023-05-05T22:39:43.949Z,15.20
2023-05-05T22:42:11.753Z,15.17
2023-05-05T22:44:39.370Z,15.13
2023-05-05T22:47:07.104Z,15.10
2023-05-05T22:49:35.323Z,15.07
2023-05-05T22:52:03.521Z,15.04
2023-05-05T22:54:31.140Z,15.02
2023-05-05T22:56:59.216Z,15.00
2023-05-05T22:59:27.077Z,14.99
2023-05-05T23:01:54.701Z,14.97
2023-05-05T23:04:22.449Z,14.96
2023-05-05T23:06:50.489Z,14.95
2023-05-05T23:09:18.164Z,14.94
2023-05-05T23:11:45.877Z,14.95
2023-05-05T23:14:13.867Z,14.96
2023-05-05T23:16:41.531Z,14.95
2023-05-05T23:19:09.225Z,14.91
2023-05-05T23:21:49.229Z,14.87
2023-05-05T23:24:20.143Z,14.85
2023-05-05T23:26:48.081Z,14.82
2023-05-05T23:29:15.770Z,14.82
2023-05-05T23:31:43.977Z,14.82
2023-05-05T23:34:11.981Z,14.82
2023-05-05T23:36:39.680Z,14.81
2023-05-05T23:39:07.999Z,14.79
2023-05-05T23:41:36.017Z,14.77
2023-05-05T23:44:03.816Z,14.79
2023-05-05T23:46:31.583Z,14.81
2023-05-05T23:48:59.306Z,14.82
2023-05-05T23:51:31.011Z,14.82
2023-05-05T23:53:58.846Z,14.82
2023-05-05T23:56:26.872Z,14.77
2023-05-05T23:58:54.598Z,14.74
